createdAt,value
2022-12-09T00:01:06.170Z,37.20
2022-12-09T00:03:34.498Z,40.38
2022-12-09T00:06:24.718Z,38.28
2022-12-09T00:08:53.046Z,41.55
2022-12-09T00:11:21.586Z,43.22
2022-12-09T00:13:54.372Z,41.28
2022-12-09T00:16:22.900Z,40.10
2022-12-09T00:18:51.424Z,38.85
2022-12-09T00:21:22.636Z,39.33
2022-12-09T00:23:52.149Z,37.63
2022-12-09T00:26:21.373Z,35.78
2022-12-09T00:28:50.397Z,37.88
2022-12-09T00:31:24.583Z,39.83
2022-12-09T00:33:55.494Z,36.88
2022-12-09T00:36:24.211Z,38.50
2022-12-09T00:38:53.021Z,38.33
2022-12-09T00:41:21.065Z,38.30
2022-12-09T00:43:48.916Z,42.10
2022-12-09T00:46:16.736Z,34.28
2022-12-09T00:48:46.064Z,34.20
2022-12-09T00:51:16.655Z,39.67
2022-12-09T00:53:44.560Z,39.10
2022-12-09T00:56:12.196Z,40.13
2022-12-09T00:58:39.893Z,36.38
2022-12-09T01:01:07.335Z,41.50
2022-12-09T01:03:35.199Z,42.15
2022-12-09T01:06:11.987Z,39.83
2022-12-09T01:08:40.112Z,42.88
2022-12-09T01:11:21.091Z,40.55
2022-12-09T01:13:50.398Z,39.13
2022-12-09T01:16:24.810Z,43.20
2022-12-09T01:18:54.085Z,39.47
2022-12-09T01:21:21.537Z,40.05
2022-12-09T01:23:50.074Z,41.55
2022-12-09T01:26:17.950Z,40.17
2022-12-09T01:28:45.497Z,41.15
2022-12-09T01:31:15.784Z,41.67
2022-12-09T01:33:44.711Z,41.90
2022-12-09T01:36:16.870Z,38.60
2022-12-09T01:38:45.682Z,41.00
2022-12-09T01:41:14.319Z,38.53
2022-12-09T01:43:42.314Z,40.50
2022-12-09T01:46:09.899Z,38.25
2022-12-09T01:48:41.748Z,41.60
2022-12-09T01:51:19.963Z,38.72
2022-12-09T01:53:50.807Z,39.60
2022-12-09T01:56:29.281Z,36.65
2022-12-09T01:59:00.639Z,37.38
2022-12-09T02:01:29.117Z,41.38
2022-12-09T02:03:57.028Z,37.35
2022-12-09T02:06:24.464Z,36.90
2022-12-09T02:08:52.973Z,35.38
2022-12-09T02:11:29.670Z,43.42
2022-12-09T02:14:03.561Z,37.78
2022-12-09T02:16:40.356Z,39.35
2022-12-09T02:19:15.048Z,41.75
2022-12-09T02:21:53.198Z,42.05
2022-12-09T02:24:30.325Z,43.33
2022-12-09T02:27:05.926Z,36.60
2022-12-09T02:29:45.590Z,36.70
2022-12-09T02:32:37.830Z,34.95
2022-12-09T02:35:14.757Z,38.65
2022-12-09T02:37:53.466Z,33.45
2022-12-09T02:40:44.766Z,35.03
2022-12-09T02:43:14.513Z,37.33
2022-12-09T02:45:44.097Z,34.42
2022-12-09T02:48:15.210Z,33.28
2022-12-09T02:50:45.275Z,35.45
2022-12-09T02:53:14.770Z,37.92
2022-12-09T02:55:45.511Z,32.97
2022-12-09T02:58:12.954Z,36.03
2022-12-09T03:00:41.251Z,36.58
2022-12-09T03:03:15.196Z,33.90
2022-12-09T03:05:56.399Z,30.88
2022-12-09T03:08:26.877Z,33.33
2022-12-09T03:11:08.335Z,34.30
2022-12-09T03:13:52.007Z,35.38
2022-12-09T03:16:34.087Z,32.92
2022-12-09T03:19:09.317Z,31.40
2022-12-09T03:21:44.069Z,32.53
2022-12-09T03:24:15.379Z,29.33
2022-12-09T03:26:43.838Z,30.20
2022-12-09T03:29:17.646Z,32.05
2022-12-09T03:31:47.252Z,31.02
2022-12-09T03:34:20.144Z,30.85
2022-12-09T03:36:53.842Z,30.13
2022-12-09T03:39:27.346Z,34.45
2022-12-09T03:42:02.935Z,32.03
2022-12-09T03:44:43.157Z,32.30
2022-12-09T03:47:11.458Z,33.47
2022-12-09T03:49:39.852Z,32.28
2022-12-09T03:52:30.681Z,30.30
2022-12-09T03:55:03.178Z,36.03
2022-12-09T03:57:32.442Z,32.47
2022-12-09T04:00:01.985Z,34.13
2022-12-09T04:02:40.512Z,30.67
2022-12-09T04:05:08.623Z,28.92
2022-12-09T04:07:36.124Z,32.35
2022-12-09T04:10:04.993Z,28.48
2022-12-09T04:12:32.738Z,31.38
2022-12-09T04:15:00.118Z,29.33
2022-12-09T04:17:27.990Z,30.85
2022-12-09T04:19:55.657Z,29.77
2022-12-09T04:22:23.113Z,31.88
2022-12-09T04:24:50.450Z,29.52
2022-12-09T04:27:18.335Z,29.90
2022-12-09T04:29:45.790Z,28.58
2022-12-09T04:32:13.500Z,24.13
2022-12-09T04:34:40.862Z,27.10
2022-12-09T04:37:08.278Z,25.30
2022-12-09T04:39:36.040Z,22.30
2022-12-09T04:42:03.968Z,23.55
2022-12-09T04:44:31.595Z,20.52
2022-12-09T04:46:59.271Z,23.00
2022-12-09T04:49:28.920Z,22.70
2022-12-09T04:51:56.387Z,21.60
2022-12-09T04:54:24.168Z,19.83
2022-12-09T04:56:52.001Z,22.20
2022-12-09T04:59:19.690Z,21.52
2022-12-09T05:01:47.334Z,21.70
2022-12-09T05:04:15.494Z,19.67
2022-12-09T05:06:43.415Z,22.52
2022-12-09T05:09:16.126Z,24.13
2022-12-09T05:11:43.785Z,19.05
2022-12-09T05:14:11.365Z,18.95
2022-12-09T05:16:39.294Z,18.20
2022-12-09T05:19:07.113Z,19.27
2022-12-09T05:21:34.690Z,19.98
2022-12-09T05:24:03.736Z,20.90
2022-12-09T05:26:32.286Z,19.40
2022-12-09T05:29:00.115Z,20.00
2022-12-09T05:31:27.616Z,19.48
2022-12-09T05:33:55.533Z,22.35
2022-12-09T05:36:25.305Z,20.27
2022-12-09T05:38:53.568Z,20.58
2022-12-09T05:41:22.945Z,21.73
2022-12-09T05:44:09.505Z,20.63
2022-12-09T05:46:37.427Z,21.20
2022-12-09T05:49:06.442Z,19.33
2022-12-09T05:51:34.046Z,19.27
2022-12-09T05:54:03.485Z,22.20
2022-12-09T05:56:31.213Z,19.83
2022-12-09T05:58:59.526Z,19.80
2022-12-09T06:01:27.930Z,20.58
2022-12-09T06:03:55.917Z,23.27
2022-12-09T06:06:31.408Z,21.15
2022-12-09T06:09:02.233Z,19.23
2022-12-09T06:11:32.402Z,20.05
2022-12-09T06:14:00.229Z,20.35
2022-12-09T06:16:28.151Z,17.55
2022-12-09T06:18:56.201Z,18.17
2022-12-09T06:21:24.396Z,21.45
2022-12-09T06:23:52.881Z,18.90
2022-12-09T06:26:26.414Z,20.65
2022-12-09T06:28:55.521Z,18.25
2022-12-09T06:31:24.909Z,17.80
2022-12-09T06:33:55.577Z,18.05
2022-12-09T06:36:24.985Z,20.73
2022-12-09T06:38:52.682Z,25.80
2022-12-09T06:41:20.642Z,17.88
2022-12-09T06:43:48.815Z,22.38
2022-12-09T06:46:24.645Z,18.48
2022-12-09T06:48:54.060Z,22.55
2022-12-09T06:51:23.648Z,20.95
2022-12-09T06:53:51.363Z,21.10
2022-12-09T06:56:19.100Z,20.55
2022-12-09T06:58:47.501Z,21.23
2022-12-09T07:01:21.276Z,21.13
2022-12-09T07:03:52.257Z,22.20
2022-12-09T07:06:30.980Z,24.38
2022-12-09T07:09:10.586Z,20.70
2022-12-09T07:11:39.159Z,25.63
2022-12-09T07:14:06.774Z,21.13
2022-12-09T07:16:35.204Z,20.25
2022-12-09T07:19:03.723Z,20.42
2022-12-09T07:21:32.633Z,18.65
2022-12-09T07:24:01.586Z,18.50
2022-12-09T07:26:33.771Z,22.42
2022-12-09T07:31:33.485Z,22.13
2022-12-09T07:34:02.073Z,22.85
2022-12-09T07:36:31.578Z,20.35
2022-12-09T07:39:05.609Z,19.40
2022-12-09T07:41:33.851Z,19.52
2022-12-09T07:44:01.405Z,25.05
2022-12-09T07:46:29.300Z,20.33
2022-12-09T07:48:58.268Z,21.70
2022-12-09T07:51:26.214Z,19.70
2022-12-09T07:53:54.329Z,22.08
2022-12-09T07:56:23.535Z,20.30
2022-12-09T07:58:54.084Z,21.13
2022-12-09T08:01:24.697Z,24.02
2022-12-09T08:03:53.315Z,22.23
2022-12-09T08:06:24.802Z,21.38
2022-12-09T08:08:52.992Z,20.98
2022-12-09T08:11:24.455Z,23.67
2022-12-09T08:13:53.151Z,20.92
2022-12-09T08:16:22.885Z,23.67
2022-12-09T08:18:52.035Z,20.48
2022-12-09T08:21:28.511Z,22.10
2022-12-09T08:23:58.243Z,23.83
2022-12-09T08:26:28.064Z,24.80
2022-12-09T08:28:56.355Z,23.52
2022-12-09T08:31:25.662Z,23.92
2022-12-09T08:33:53.975Z,26.67
2022-12-09T08:36:24.756Z,27.33
2022-12-09T08:38:54.570Z,26.95
2022-12-09T08:41:35.385Z,25.45
2022-12-09T08:44:07.922Z,25.55
2022-12-09T08:46:38.066Z,25.92
2022-12-09T08:49:07.314Z,24.52
2022-12-09T08:51:35.889Z,23.30
2022-12-09T08:54:04.972Z,20.63
2022-12-09T08:56:35.440Z,21.98
2022-12-09T08:59:03.928Z,20.50
2022-12-09T09:01:35.926Z,20.45
2022-12-09T09:04:09.226Z,21.90
2022-12-09T09:06:38.432Z,20.55
2022-12-09T09:09:07.937Z,18.92
2022-12-09T09:11:39.443Z,16.52
2022-12-09T09:14:11.717Z,18.15
2022-12-09T09:16:42.150Z,16.10
2022-12-09T09:19:16.011Z,15.63
2022-12-09T09:21:43.803Z,14.95
2022-12-09T09:24:14.436Z,14.80
2022-12-09T09:26:44.258Z,17.00
2022-12-09T09:29:13.484Z,14.90
2022-12-09T09:31:41.912Z,12.88
2022-12-09T09:34:10.388Z,11.18
2022-12-09T09:36:40.352Z,13.45
2022-12-09T09:39:08.426Z,15.05
2022-12-09T09:41:51.760Z,14.20
2022-12-09T09:44:22.613Z,15.90
2022-12-09T09:46:54.743Z,13.82
2022-12-09T09:49:46.156Z,12.13
2022-12-09T09:52:19.045Z,14.63
2022-12-09T09:54:47.392Z,11.25
2022-12-09T09:57:22.131Z,13.18
2022-12-09T10:00:08.846Z,14.75
2022-12-09T10:02:46.145Z,11.50
2022-12-09T10:05:33.011Z,12.40
2022-12-09T10:08:33.579Z,8.35
2022-12-09T10:11:23.432Z,7.78
2022-12-09T10:13:52.590Z,7.10
2022-12-09T10:16:25.038Z,6.28
2022-12-09T10:19:09.674Z,6.32
2022-12-09T10:21:42.505Z,7.10
2022-12-09T10:24:24.069Z,7.03
2022-12-09T10:27:06.187Z,6.25
2022-12-09T10:32:18.152Z,5.15
2022-12-09T10:34:47.727Z,4.55
2022-12-09T10:37:28.486Z,5.68
2022-12-09T10:40:20.249Z,5.30
2022-12-09T10:43:09.599Z,5.72
2022-12-09T10:46:16.931Z,7.10
2022-12-09T10:48:37.633Z,7.93
2022-12-09T10:51:12.275Z,8.15
2022-12-09T10:53:56.305Z,6.05
2022-12-09T10:57:05.140Z,4.50
2022-12-09T10:59:34.068Z,6.35
2022-12-09T11:02:09.795Z,6.43
2022-12-09T11:04:43.440Z,8.18
2022-12-09T11:07:21.164Z,6.72
2022-12-09T11:09:51.263Z,5.00
2022-12-09T11:12:30.955Z,4.50
2022-12-09T11:15:11.867Z,4.00
2022-12-09T11:17:58.449Z,4.15
2022-12-09T11:20:29.657Z,5.65
2022-12-09T11:23:15.991Z,4.53
2022-12-09T11:26:00.187Z,4.68
2022-12-09T11:28:39.471Z,6.93
2022-12-09T11:34:17.973Z,6.10
2022-12-09T11:36:51.949Z,7.07
2022-12-09T11:39:27.616Z,7.18
2022-12-09T11:42:18.599Z,4.10
2022-12-09T11:45:16.754Z,5.65
2022-12-09T11:50:37.152Z,5.80
2022-12-09T11:53:13.161Z,6.45
2022-12-09T11:55:51.257Z,7.40
2022-12-09T11:58:30.441Z,5.03
2022-12-09T12:01:14.260Z,6.85
2022-12-09T12:03:49.147Z,7.18
2022-12-09T12:06:24.299Z,6.85
2022-12-09T12:08:58.769Z,6.63
2022-12-09T12:11:40.599Z,6.32
2022-12-09T12:14:18.975Z,6.05
2022-12-09T12:16:57.332Z,5.60
2022-12-09T12:19:35.078Z,5.68
2022-12-09T12:22:31.520Z,5.97
2022-12-09T12:25:21.842Z,5.53
2022-12-09T12:28:04.325Z,7.22
2022-12-09T12:30:57.846Z,6.63
2022-12-09T12:34:16.131Z,7.30
2022-12-09T12:37:17.282Z,6.60
2022-12-09T12:40:07.220Z,7.10
2022-12-09T12:43:22.776Z,8.50
2022-12-09T12:46:17.848Z,8.23
2022-12-09T12:49:24.341Z,8.52
2022-12-09T12:52:39.417Z,8.30
2022-12-09T12:55:26.051Z,15.00
2022-12-09T12:58:14.320Z,10.23
2022-12-09T13:01:07.468Z,10.18
2022-12-09T13:04:06.630Z,10.38
2022-12-09T13:06:40.849Z,10.48
2022-12-09T13:09:18.919Z,9.75
2022-12-09T13:11:58.842Z,8.98
2022-12-09T13:14:33.857Z,11.20
2022-12-09T13:17:05.546Z,10.70
2022-12-09T13:19:44.605Z,10.48
2022-12-09T13:22:36.609Z,9.48
2022-12-09T13:25:39.798Z,12.30
2022-12-09T13:28:24.900Z,11.73
2022-12-09T13:30:59.558Z,9.70
2022-12-09T13:33:55.171Z,8.27
2022-12-09T13:36:46.462Z,10.50
2022-12-09T13:39:39.522Z,9.93
2022-12-09T13:42:55.350Z,13.80
2022-12-09T13:45:34.644Z,7.38
2022-12-09T13:48:09.601Z,9.77
2022-12-09T13:50:57.711Z,9.05
2022-12-09T13:53:33.763Z,8.82
2022-12-09T13:56:04.239Z,8.45
2022-12-09T13:58:55.985Z,8.82
2022-12-09T14:01:28.132Z,8.40
2022-12-09T14:04:15.586Z,8.60
2022-12-09T14:06:45.618Z,6.85
2022-12-09T14:09:49.057Z,9.07
2022-12-09T14:12:25.613Z,6.68
2022-12-09T14:14:58.636Z,6.90
2022-12-09T14:17:25.937Z,7.28
2022-12-09T14:20:14.907Z,8.30
2022-12-09T14:23:02.029Z,8.48
2022-12-09T14:25:29.323Z,8.00
2022-12-09T14:28:21.003Z,7.88
2022-12-09T14:30:51.127Z,8.07
2022-12-09T14:33:31.822Z,7.25
2022-12-09T14:36:21.853Z,8.65
2022-12-09T14:39:24.368Z,8.30
2022-12-09T14:42:02.092Z,7.45
2022-12-09T14:44:39.981Z,7.63
2022-12-09T14:47:24.251Z,8.90
2022-12-09T14:49:54.024Z,7.57
2022-12-09T14:52:33.062Z,7.72
2022-12-09T14:55:04.726Z,8.15
2022-12-09T14:57:44.036Z,6.93
2022-12-09T15:00:32.211Z,9.98
2022-12-09T15:06:17.733Z,8.45
2022-12-09T15:08:45.796Z,7.90
2022-12-09T15:11:27.299Z,10.48
2022-12-09T15:14:20.551Z,9.48
2022-12-09T15:16:50.895Z,10.02
2022-12-09T15:19:58.627Z,10.48
2022-12-09T15:22:24.046Z,10.95
2022-12-09T15:24:52.704Z,13.05
2022-12-09T15:27:22.657Z,8.77
2022-12-09T15:29:50.603Z,8.85
2022-12-09T15:32:28.195Z,9.45
2022-12-09T15:34:56.015Z,11.68
2022-12-09T15:37:28.741Z,10.55
2022-12-09T15:40:08.494Z,8.77
2022-12-09T15:42:40.290Z,11.00
2022-12-09T15:45:12.932Z,9.75
2022-12-09T15:47:51.433Z,13.50
2022-12-09T15:50:22.944Z,10.82
2022-12-09T15:52:54.510Z,11.07
2022-12-09T15:55:30.845Z,9.45
2022-12-09T15:58:00.712Z,10.15
2022-12-09T16:00:28.541Z,9.10
2022-12-09T16:02:56.408Z,7.72
2022-12-09T16:05:25.721Z,7.38
2022-12-09T16:07:56.390Z,6.45
2022-12-09T16:10:27.044Z,6.55
2022-12-09T16:13:12.920Z,9.60
2022-12-09T16:15:45.037Z,10.15
2022-12-09T16:18:27.156Z,5.05
2022-12-09T16:23:27.802Z,6.40
2022-12-09T16:26:06.691Z,6.05
2022-12-09T16:28:35.091Z,7.60
2022-12-09T16:31:25.509Z,5.18
2022-12-09T16:33:53.032Z,6.15
2022-12-09T16:36:29.062Z,5.32
2022-12-09T16:39:08.635Z,5.35
2022-12-09T16:41:51.125Z,5.05
2022-12-09T16:44:40.553Z,4.63
2022-12-09T16:47:11.428Z,5.25
2022-12-09T16:49:40.550Z,4.40
2022-12-09T16:52:12.618Z,5.20
2022-12-09T16:54:42.494Z,4.72
2022-12-09T16:57:13.145Z,4.60
2022-12-09T16:59:41.010Z,4.53
2022-12-09T17:02:34.313Z,4.80
2022-12-09T17:05:01.988Z,5.43
2022-12-09T17:07:29.398Z,5.32
2022-12-09T17:09:56.729Z,5.88
2022-12-09T17:12:24.175Z,7.63
2022-12-09T17:14:52.483Z,4.30
2022-12-09T17:17:19.854Z,4.68
2022-12-09T17:19:47.213Z,5.57
2022-12-09T17:22:14.577Z,4.28
2022-12-09T17:24:42.024Z,6.22
2022-12-09T17:27:09.491Z,5.10
2022-12-09T17:29:37.430Z,4.63
2022-12-09T17:32:05.793Z,5.90
2022-12-09T17:34:33.138Z,6.15
2022-12-09T17:37:00.607Z,6.15
2022-12-09T17:39:29.892Z,4.30
2022-12-09T17:41:57.278Z,3.90
2022-12-09T17:44:24.665Z,4.13
2022-12-09T17:46:52.242Z,4.50
2022-12-09T17:49:20.006Z,5.22
2022-12-09T17:51:50.187Z,6.80
2022-12-09T17:54:17.561Z,4.47
2022-12-09T17:56:46.658Z,5.95
2022-12-09T17:59:16.028Z,5.55
2022-12-09T18:01:45.779Z,6.05
2022-12-09T18:04:17.512Z,5.30
2022-12-09T18:06:46.274Z,3.92
2022-12-09T18:09:16.715Z,4.82
2022-12-09T18:11:45.180Z,5.38
2022-12-09T18:14:12.985Z,5.00
2022-12-09T18:16:40.465Z,7.60
2022-12-09T18:19:15.264Z,5.97
2022-12-09T18:21:43.985Z,5.60
2022-12-09T18:24:11.403Z,4.32
2022-12-09T18:26:42.132Z,4.72
2022-12-09T18:29:10.924Z,5.60
2022-12-09T18:31:39.413Z,6.07
2022-12-09T18:34:07.113Z,5.38
2022-12-09T18:36:34.428Z,4.90
2022-12-09T18:39:01.873Z,4.80
2022-12-09T18:41:30.897Z,5.80
2022-12-09T18:44:01.184Z,5.93
2022-12-09T18:46:36.599Z,4.70
2022-12-09T18:49:13.043Z,7.60
2022-12-09T18:51:42.373Z,5.53
2022-12-09T18:54:16.384Z,6.15
2022-12-09T18:56:44.133Z,5.43
2022-12-09T18:59:12.151Z,6.13
2022-12-09T19:01:45.227Z,5.60
2022-12-09T19:04:18.994Z,6.05
2022-12-09T19:06:48.348Z,5.28
2022-12-09T19:09:19.717Z,7.35
2022-12-09T19:11:48.432Z,6.13
2022-12-09T19:14:17.322Z,5.05
2022-12-09T19:16:45.393Z,4.93
2022-12-09T19:19:15.593Z,6.03
2022-12-09T19:21:43.545Z,6.47
2022-12-09T19:24:16.942Z,4.85
2022-12-09T19:26:45.033Z,4.40
2022-12-09T19:29:13.612Z,5.32
2022-12-09T19:31:45.978Z,4.95
2022-12-09T19:34:20.164Z,6.40
2022-12-09T19:36:49.693Z,5.97
2022-12-09T19:39:19.426Z,13.13
2022-12-09T19:41:47.047Z,14.07
2022-12-09T19:44:37.150Z,10.90
2022-12-09T19:47:07.600Z,8.20
2022-12-09T19:49:36.313Z,7.93
2022-12-09T19:52:03.778Z,8.27
2022-12-09T19:54:31.147Z,6.22
2022-12-09T19:57:00.816Z,5.18
2022-12-09T19:59:28.458Z,6.32
2022-12-09T20:01:56.056Z,6.63
2022-12-09T20:07:14.852Z,5.75
2022-12-09T20:09:42.268Z,6.68
2022-12-09T20:12:09.673Z,6.63
2022-12-09T20:14:37.051Z,4.72
2022-12-09T20:17:04.560Z,7.05
2022-12-09T20:19:31.980Z,5.97
2022-12-09T20:21:59.317Z,6.38
2022-12-09T20:24:26.863Z,7.55
2022-12-09T20:26:56.023Z,12.32
2022-12-09T20:29:23.433Z,6.82
2022-12-09T20:31:53.272Z,9.15
2022-12-09T20:34:23.735Z,10.43
2022-12-09T20:36:51.432Z,10.68
2022-12-09T20:39:21.162Z,17.65
2022-12-09T20:41:48.834Z,14.40
2022-12-09T20:44:18.347Z,16.17
2022-12-09T20:46:49.426Z,18.75
2022-12-09T20:49:17.383Z,14.48
2022-12-09T20:51:45.433Z,19.95
2022-12-09T20:54:13.991Z,18.75
2022-12-09T20:56:42.099Z,18.45
2022-12-09T20:59:16.062Z,15.82
2022-12-09T21:01:47.260Z,13.60
2022-12-09T21:04:15.198Z,14.15
2022-12-09T21:06:42.988Z,10.73
2022-12-09T21:09:14.856Z,11.43
2022-12-09T21:11:45.836Z,9.18
2022-12-09T21:14:14.501Z,7.80
2022-12-09T21:16:52.298Z,9.55
2022-12-09T21:19:24.718Z,7.55
2022-12-09T21:21:52.790Z,8.98
2022-12-09T21:24:21.839Z,8.50
2022-12-09T21:26:49.536Z,8.82
2022-12-09T21:29:16.945Z,6.78
2022-12-09T21:31:46.936Z,6.93
2022-12-09T21:34:14.849Z,6.95
2022-12-09T21:36:43.997Z,7.97
2022-12-09T21:39:15.833Z,9.05
2022-12-09T21:44:18.647Z,20.23
2022-12-09T21:46:46.209Z,21.73
2022-12-09T21:49:14.741Z,24.15
2022-12-09T21:51:43.486Z,30.65
2022-12-09T21:54:10.915Z,31.65
2022-12-09T21:56:38.331Z,35.25
2022-12-09T21:59:06.953Z,36.40
2022-12-09T22:01:37.864Z,37.75
2022-12-09T22:04:08.544Z,35.37
2022-12-09T22:06:36.382Z,37.60
2022-12-09T22:09:05.908Z,36.25
2022-12-09T22:11:36.531Z,37.85
2022-12-09T22:14:04.256Z,35.25
2022-12-09T22:16:35.096Z,35.78
2022-12-09T22:19:03.973Z,35.15
2022-12-09T22:21:33.571Z,35.80
2022-12-09T22:24:06.687Z,35.25
2022-12-09T22:26:34.145Z,34.58
2022-12-09T22:29:03.283Z,36.60
2022-12-09T22:31:33.349Z,34.22
2022-12-09T22:34:13.412Z,31.73
2022-12-09T22:36:41.456Z,32.00
2022-12-09T22:39:16.188Z,33.05
2022-12-09T22:41:45.793Z,30.88
2022-12-09T22:44:15.424Z,30.25
2022-12-09T22:46:43.851Z,31.23
2022-12-09T22:49:13.573Z,34.42
2022-12-09T22:51:42.171Z,31.88
2022-12-09T22:54:10.781Z,30.65
2022-12-09T22:56:40.162Z,32.25
2022-12-09T22:59:07.949Z,34.70
2022-12-09T23:01:37.438Z,38.20
2022-12-09T23:04:06.836Z,36.63
2022-12-09T23:06:36.672Z,34.85
2022-12-09T23:09:05.379Z,31.20
2022-12-09T23:11:32.975Z,37.60
2022-12-09T23:14:01.058Z,34.15
2022-12-09T23:16:29.210Z,36.50
2022-12-09T23:18:57.849Z,36.78
2022-12-09T23:21:28.638Z,37.95
2022-12-09T23:23:58.730Z,36.53
2022-12-09T23:26:29.141Z,33.65
2022-12-09T23:28:59.691Z,33.78
2022-12-09T23:31:32.104Z,34.00
2022-12-09T23:34:00.153Z,32.95
2022-12-09T23:36:34.627Z,34.45
2022-12-09T23:39:04.170Z,38.78
2022-12-09T23:41:31.570Z,36.55
2022-12-09T23:43:58.943Z,40.15
2022-12-09T23:46:28.027Z,38.65
2022-12-09T23:48:56.572Z,36.33
2022-12-09T23:51:29.897Z,36.90
2022-12-09T23:54:01.170Z,34.53
2022-12-09T23:56:31.722Z,37.13
2022-12-09T23:59:01.867Z,40.25
